createdAt,value
2023-04-02T00:01:19.812Z,99857.60
2023-04-02T00:03:53.372Z,99859.95
2023-04-02T00:06:32.420Z,99864.05
2023-04-02T00:09:17.622Z,99866.98
2023-04-02T00:11:49.228Z,99868.04
2023-04-02T00:14:35.668Z,99869.42
2023-04-02T00:17:06.517Z,99873.17
2023-04-02T00:19:37.771Z,99875.70
2023-04-02T00:22:14.436Z,99884.03
2023-04-02T00:24:44.087Z,99885.02
2023-04-02T00:27:19.439Z,99886.19
2023-04-02T00:29:55.821Z,99888.89
2023-04-02T00:32:31.425Z,99890.92
2023-04-02T00:35:00.946Z,99891.92
2023-04-02T00:37:38.462Z,99894.84
2023-04-02T00:40:16.736Z,99897.60
2023-04-02T00:42:46.238Z,99896.05
2023-04-02T00:45:28.925Z,99902.15
2023-04-02T00:48:01.512Z,99900.63
2023-04-02T00:50:41.612Z,99905.00
2023-04-02T00:53:16.423Z,99909.34
2023-04-02T00:55:50.217Z,99907.49
2023-04-02T00:58:39.868Z,99911.35
2023-04-02T01:01:22.561Z,99912.06
2023-04-02T01:03:57.979Z,99917.23
2023-04-02T01:06:34.013Z,99921.88
2023-04-02T01:09:41.374Z,99928.44
2023-04-02T01:12:43.394Z,99928.79
2023-04-02T01:15:18.974Z,99934.77
2023-04-02T01:18:26.254Z,99936.33
2023-04-02T01:21:17.643Z,99940.46
2023-04-02T01:24:08.870Z,99939.94
2023-04-02T01:26:39.126Z,99941.09
2023-04-02T01:29:12.702Z,99947.20
2023-04-02T01:31:42.611Z,99947.90
2023-04-02T01:34:15.080Z,99950.67
2023-04-02T01:37:04.573Z,99954.48
2023-04-02T01:39:51.742Z,99955.38
2023-04-02T01:42:53.978Z,99952.66
2023-04-02T01:45:25.431Z,99955.19
2023-04-02T01:47:57.105Z,99958.88
2023-04-02T01:50:32.116Z,99960.63
2023-04-02T01:53:14.941Z,99964.30
2023-04-02T01:55:53.170Z,99969.88
2023-04-02T01:58:29.686Z,99969.71
2023-04-02T02:01:08.049Z,99975.02
2023-04-02T02:03:45.289Z,99977.36
2023-04-02T02:06:16.503Z,99983.01
2023-04-02T02:08:48.811Z,99982.77
2023-04-02T02:11:23.080Z,99985.05
2023-04-02T02:13:56.365Z,99990.64
2023-04-02T02:16:41.402Z,99993.14
2023-04-02T02:19:38.972Z,99992.63
2023-04-02T02:22:11.517Z,99998.13
2023-04-02T02:24:43.893Z,100001.09
2023-04-02T02:27:22.223Z,100007.61
2023-04-02T02:30:23.997Z,100009.15
2023-04-02T02:33:07.302Z,100011.05
2023-04-02T02:35:50.550Z,100010.97
2023-04-02T02:38:33.353Z,100018.52
2023-04-02T02:41:34.765Z,100017.23
2023-04-02T02:44:18.303Z,100019.16
2023-04-02T02:46:58.003Z,100016.23
2023-04-02T02:49:41.338Z,100019.83
2023-04-02T02:52:09.712Z,100025.13
2023-04-02T02:54:53.576Z,100024.96
2023-04-02T02:57:28.641Z,100031.79
2023-04-02T03:00:01.096Z,100034.22
2023-04-02T03:02:36.021Z,100036.13
2023-04-02T03:05:09.568Z,100041.38
2023-04-02T03:07:40.391Z,100043.90
2023-04-02T03:10:37.206Z,100046.61
2023-04-02T03:13:22.505Z,100051.69
2023-04-02T03:16:19.188Z,100056.79
2023-04-02T03:19:25.205Z,100065.48
2023-04-02T03:22:10.740Z,100062.62
2023-04-02T03:24:55.027Z,100059.71
2023-04-02T03:27:33.261Z,100066.72
2023-04-02T03:30:27.984Z,100067.89
2023-04-02T03:33:23.321Z,100071.97
2023-04-02T03:36:12.577Z,100080.25
2023-04-02T03:38:52.998Z,100081.83
2023-04-02T03:41:40.138Z,100088.21
2023-04-02T03:44:21.655Z,100089.73
2023-04-02T03:46:57.209Z,100094.48
2023-04-02T03:49:31.949Z,100098.27
2023-04-02T03:52:16.333Z,100108.15
2023-04-02T03:54:53.700Z,100109.33
2023-04-02T03:57:32.978Z,100110.89
2023-04-02T04:00:25.774Z,100111.90
2023-04-02T04:03:03.663Z,100120.41
2023-04-02T04:05:37.401Z,100122.52
2023-04-02T04:08:18.699Z,100123.58
2023-04-02T04:10:51.962Z,100127.89
2023-04-02T04:13:29.553Z,100139.13
2023-04-02T04:16:15.347Z,100142.32
2023-04-02T04:19:03.565Z,100146.70
2023-04-02T04:21:40.504Z,100152.21
2023-04-02T04:24:21.492Z,100156.55
2023-04-02T04:27:09.391Z,100157.71
2023-04-02T04:30:07.087Z,100160.17
2023-04-02T04:33:01.845Z,100159.71
2023-04-02T04:35:50.170Z,100163.64
2023-04-02T04:38:38.984Z,100166.53
2023-04-02T04:41:14.808Z,100170.30
2023-04-02T04:44:11.500Z,100172.63
2023-04-02T04:47:07.350Z,100175.09
2023-04-02T04:49:56.330Z,100179.76
2023-04-02T04:52:28.447Z,100180.83
2023-04-02T04:55:00.811Z,100188.11
2023-04-02T04:57:38.608Z,100186.39
2023-04-02T05:00:20.416Z,100190.30
2023-04-02T05:02:58.236Z,100195.71
2023-04-02T05:05:33.107Z,100195.33
2023-04-02T05:08:17.775Z,100200.97
2023-04-02T05:11:04.966Z,100204.38
2023-04-02T05:13:43.688Z,100209.80
2023-04-02T05:16:53.532Z,100215.10
2023-04-02T05:19:41.280Z,100221.59
2023-04-02T05:22:43.106Z,100225.43
2023-04-02T05:25:20.447Z,100233.13
2023-04-02T05:28:10.491Z,100235.54
2023-04-02T05:30:49.017Z,100237.20
2023-04-02T05:33:29.082Z,100244.63
2023-04-02T05:36:11.987Z,100246.77
2023-04-02T05:38:49.453Z,100251.86
2023-04-02T05:41:28.107Z,100247.11
2023-04-02T05:44:25.338Z,100253.56
2023-04-02T05:47:05.110Z,100257.95
2023-04-02T05:49:37.605Z,100264.43
2023-04-02T05:52:15.961Z,100267.84
2023-04-02T05:54:58.790Z,100277.98
2023-04-02T05:57:44.542Z,100280.23
2023-04-02T06:00:32.006Z,100283.20
2023-04-02T06:03:14.583Z,100287.59
2023-04-02T06:05:46.598Z,100285.73
2023-04-02T06:08:25.401Z,100285.42
2023-04-02T06:11:18.877Z,100293.58
2023-04-02T06:13:47.533Z,100292.41
2023-04-02T06:16:25.945Z,100295.22
2023-04-02T06:18:55.504Z,100291.43
2023-04-02T06:21:25.407Z,100295.71
2023-04-02T06:23:59.477Z,100298.91
2023-04-02T06:26:35.931Z,100304.85
2023-04-02T06:29:39.659Z,100308.57
2023-04-02T06:32:13.013Z,100310.45
2023-04-02T06:34:46.372Z,100311.65
2023-04-02T06:37:27.417Z,100320.53
2023-04-02T06:40:39.125Z,100325.36
2023-04-02T06:43:35.702Z,100328.89
2023-04-02T06:46:54.710Z,100334.87
2023-04-02T06:49:28.111Z,100336.36
2023-04-02T06:52:09.498Z,100345.41
2023-04-02T06:54:38.125Z,100348.94
2023-04-02T06:57:13.109Z,100346.96
2023-04-02T06:59:48.078Z,100345.44
2023-04-02T07:02:34.543Z,100356.23
2023-04-02T07:05:09.484Z,100360.72
2023-04-02T07:07:43.911Z,100364.64
2023-04-02T07:10:13.622Z,100364.98
2023-04-02T07:12:44.962Z,100368.95
2023-04-02T07:15:19.013Z,100376.37
2023-04-02T07:17:47.951Z,100378.95
2023-04-02T07:20:28.702Z,100381.61
2023-04-02T07:23:04.498Z,100383.55
2023-04-02T07:25:33.083Z,100389.50
2023-04-02T07:28:06.932Z,100394.01
2023-04-02T07:30:35.222Z,100398.59
2023-04-02T07:33:10.145Z,100403.20
2023-04-02T07:35:40.143Z,100408.80
2023-04-02T07:38:09.348Z,100408.33
2023-04-02T07:40:38.217Z,100412.33
2023-04-02T07:43:07.007Z,100420.34
2023-04-02T07:45:35.560Z,100419.98
2023-04-02T07:48:09.170Z,100424.38
2023-04-02T07:50:47.557Z,100429.15
2023-04-02T07:53:34.683Z,100431.67
2023-04-02T07:56:06.983Z,100432.52
2023-04-02T07:58:38.018Z,100432.10
2023-04-02T08:01:19.251Z,100436.73
2023-04-02T08:03:48.317Z,100442.21
2023-04-02T08:06:16.797Z,100445.63
2023-04-02T08:08:45.359Z,100446.70
2023-04-02T08:11:13.931Z,100449.55
2023-04-02T08:13:42.216Z,100452.20
2023-04-02T08:16:13.594Z,100455.62
2023-04-02T08:18:43.994Z,100452.34
2023-04-02T08:21:16.371Z,100457.66
2023-04-02T08:23:45.641Z,100461.79
2023-04-02T08:26:18.765Z,100463.72
2023-04-02T08:28:47.050Z,100467.46
2023-04-02T08:31:17.073Z,100469.19
2023-04-02T08:33:45.465Z,100474.35
2023-04-02T08:36:20.782Z,100476.95
2023-04-02T08:38:49.285Z,100476.70
2023-04-02T08:41:27.554Z,100481.09
2023-04-02T08:44:27.973Z,100484.76
2023-04-02T08:47:08.945Z,100487.36
2023-04-02T08:49:57.398Z,100490.73
2023-04-02T08:52:33.986Z,100492.45
2023-04-02T08:55:03.635Z,100494.55
2023-04-02T08:57:46.523Z,100500.58
2023-04-02T09:00:35.603Z,100501.00
2023-04-02T09:03:16.367Z,100501.64
2023-04-02T09:05:51.171Z,100504.48
2023-04-02T09:08:25.684Z,100514.05
2023-04-02T09:11:26.439Z,100516.73
2023-04-02T09:13:58.790Z,100517.04
2023-04-02T09:16:55.858Z,100519.98
2023-04-02T09:19:32.064Z,100526.10
2023-04-02T09:22:20.286Z,100532.35
2023-04-02T09:25:15.702Z,100535.58
2023-04-02T09:27:51.440Z,100532.09
2023-04-02T09:30:32.399Z,100542.26
2023-04-02T09:33:06.921Z,100543.39
2023-04-02T09:35:56.667Z,100544.45
2023-04-02T09:38:30.412Z,100549.24
2023-04-02T09:41:07.383Z,100555.85
2023-04-02T09:43:39.928Z,100559.85
2023-04-02T09:46:23.326Z,100559.71
2023-04-02T09:49:03.059Z,100561.62
2023-04-02T09:51:36.278Z,100565.56
2023-04-02T09:54:14.107Z,100568.23
2023-04-02T09:57:01.274Z,100571.68
2023-04-02T09:59:40.870Z,100576.80
2023-04-02T10:02:29.262Z,100582.66
2023-04-02T10:05:07.677Z,100584.73
2023-04-02T10:07:44.362Z,100588.48
2023-04-02T10:10:33.573Z,100594.85
2023-04-02T10:13:20.705Z,100598.15
2023-04-02T10:16:07.226Z,100596.21
2023-04-02T10:18:45.251Z,100597.54
2023-04-02T10:21:18.951Z,100604.55
2023-04-02T10:24:16.682Z,100608.05
2023-04-02T10:27:18.399Z,100611.70
2023-04-02T10:29:55.912Z,100609.65
2023-04-02T10:32:40.439Z,100615.20
2023-04-02T10:35:11.849Z,100617.38
2023-04-02T10:37:48.494Z,100626.27
2023-04-02T10:40:30.223Z,100624.48
2023-04-02T10:43:38.361Z,100628.77
2023-04-02T10:46:16.571Z,100630.16
2023-04-02T10:49:11.575Z,100634.16
2023-04-02T10:51:55.080Z,100639.27
2023-04-02T10:54:48.573Z,100638.87
2023-04-02T10:57:31.087Z,100643.89
2023-04-02T11:00:04.651Z,100646.87
2023-04-02T11:03:08.431Z,100661.55
2023-04-02T11:05:49.731Z,100662.77
2023-04-02T11:08:26.188Z,100667.94
2023-04-02T11:11:24.369Z,100671.45
2023-04-02T11:14:05.838Z,100673.45
2023-04-02T11:16:41.698Z,100680.31
2023-04-02T11:19:20.324Z,100685.03
2023-04-02T11:22:18.261Z,100688.63
2023-04-02T11:24:52.815Z,100690.16
2023-04-02T11:27:35.120Z,100695.61
2023-04-02T11:30:28.054Z,100692.38
2023-04-02T11:33:44.101Z,100702.56
2023-04-02T11:36:59.131Z,100702.27
2023-04-02T11:39:55.601Z,100708.77
2023-04-02T11:42:42.157Z,100708.56
2023-04-02T11:45:23.868Z,100709.26
2023-04-02T11:48:06.105Z,100707.80
2023-04-02T11:50:48.306Z,100712.45
2023-04-02T11:53:23.121Z,100714.74
2023-04-02T11:56:02.797Z,100716.52
2023-04-02T11:59:24.002Z,100715.36
2023-04-02T12:02:42.674Z,100718.49
2023-04-02T12:05:40.602Z,100719.64
2023-04-02T12:08:44.281Z,100718.05
2023-04-02T12:11:40.763Z,100719.80
2023-04-02T12:14:30.608Z,100720.27
2023-04-02T12:17:02.118Z,100728.14
2023-04-02T12:19:33.729Z,100731.83
2023-04-02T12:22:05.348Z,100736.17
2023-04-02T12:24:36.679Z,100738.52
2023-04-02T12:27:24.640Z,100742.48
2023-04-02T12:30:24.085Z,100746.77
2023-04-02T12:32:58.859Z,100744.38
2023-04-02T12:35:38.117Z,100751.75
2023-04-02T12:38:32.940Z,100753.19
2023-04-02T12:41:08.435Z,100754.88
2023-04-02T12:43:42.071Z,100757.32
2023-04-02T12:46:17.242Z,100761.44
2023-04-02T12:48:54.824Z,100766.77
2023-04-02T12:51:28.875Z,100774.89
2023-04-02T12:54:03.268Z,100774.56
2023-04-02T12:56:36.220Z,100778.31
2023-04-02T12:59:07.620Z,100780.13
2023-04-02T13:01:59.406Z,100784.85
2023-04-02T13:04:31.364Z,100785.85
2023-04-02T13:07:07.432Z,100788.10
2023-04-02T13:10:02.466Z,100786.64
2023-04-02T13:12:39.059Z,100794.58
2023-04-02T13:15:22.653Z,100798.17
2023-04-02T13:18:08.645Z,100806.84
2023-04-02T13:20:47.245Z,100805.12
2023-04-02T13:23:29.393Z,100808.88
2023-04-02T13:26:12.625Z,100811.05
2023-04-02T13:28:43.499Z,100810.02
2023-04-02T13:31:18.396Z,100820.73
2023-04-02T13:33:48.877Z,100823.64
2023-04-02T13:36:21.316Z,100826.30
2023-04-02T13:38:52.674Z,100823.20
2023-04-02T13:41:35.734Z,100828.31
2023-04-02T13:44:06.827Z,100827.80
2023-04-02T13:46:40.705Z,100831.56
2023-04-02T13:49:23.093Z,100839.08
2023-04-02T13:52:00.899Z,100838.66
2023-04-02T13:55:02.085Z,100844.48
2023-04-02T13:57:36.149Z,100845.74
2023-04-02T14:00:08.903Z,100843.08
2023-04-02T14:02:47.157Z,100845.56
2023-04-02T14:05:24.390Z,100848.59
2023-04-02T14:08:09.830Z,100849.69
2023-04-02T14:11:11.134Z,100847.02
2023-04-02T14:14:00.192Z,100852.48
2023-04-02T14:17:03.532Z,100854.85
2023-04-02T14:20:06.594Z,100861.16
2023-04-02T14:23:06.594Z,100866.77
2023-04-02T14:26:03.702Z,100869.21
2023-04-02T14:28:50.870Z,100874.59
2023-04-02T14:31:26.029Z,100875.19
2023-04-02T14:34:29.598Z,100880.62
2023-04-02T14:37:27.557Z,100881.90
2023-04-02T14:40:21.917Z,100883.66
2023-04-02T14:43:26.553Z,100892.30
2023-04-02T14:46:08.997Z,100890.24
2023-04-02T14:48:52.806Z,100891.81
2023-04-02T14:51:53.337Z,100892.56
2023-04-02T14:54:39.271Z,100897.79
2023-04-02T14:57:25.315Z,100903.63
2023-04-02T15:00:23.512Z,100902.45
2023-04-02T15:03:12.323Z,100907.84
2023-04-02T15:05:59.237Z,100909.60
2023-04-02T15:08:58.638Z,100911.20
2023-04-02T15:11:48.236Z,100915.48
2023-04-02T15:14:36.149Z,100922.39
2023-04-02T15:17:14.319Z,100923.64
2023-04-02T15:19:46.107Z,100927.95
2023-04-02T15:22:47.255Z,100930.86
2023-04-02T15:26:04.013Z,100934.09
2023-04-02T15:28:51.188Z,100938.69
2023-04-02T15:31:31.170Z,100944.64
2023-04-02T15:34:09.673Z,100952.39
2023-04-02T15:37:22.922Z,100957.56
2023-04-02T15:40:12.692Z,100959.52
2023-04-02T15:43:09.358Z,100966.73
2023-04-02T15:45:56.634Z,100974.33
2023-04-02T15:48:34.550Z,100975.59
2023-04-02T15:51:36.386Z,100980.45
2023-04-02T15:54:31.173Z,100977.46
2023-04-02T15:57:23.108Z,100980.60
2023-04-02T16:00:31.299Z,100983.31
2023-04-02T16:03:19.038Z,100989.27
2023-04-02T16:06:04.952Z,100989.78
2023-04-02T16:09:11.440Z,100995.74
2023-04-02T16:11:48.036Z,100998.63
2023-04-02T16:14:34.869Z,101003.53
2023-04-02T16:17:25.070Z,101006.08
2023-04-02T16:20:08.630Z,101006.77
2023-04-02T16:22:53.357Z,101012.57
2023-04-02T16:25:58.271Z,101014.31
2023-04-02T16:28:50.453Z,101017.91
2023-04-02T16:31:41.354Z,101016.88
2023-04-02T16:34:43.854Z,101019.92
2023-04-02T16:37:38.907Z,101024.73
2023-04-02T16:40:30.755Z,101027.68
2023-04-02T16:43:31.203Z,101030.48
2023-04-02T16:46:38.847Z,101037.14
2023-04-02T16:49:26.383Z,101040.70
2023-04-02T16:52:34.343Z,101046.49
2023-04-02T16:55:34.652Z,101052.49
2023-04-02T16:58:44.696Z,101059.10
2023-04-02T17:01:49.667Z,101061.24
2023-04-02T17:04:55.873Z,101067.45
2023-04-02T17:07:52.916Z,101072.91
2023-04-02T17:10:36.710Z,101078.59
2023-04-02T17:13:34.577Z,101080.73
2023-04-02T17:16:15.204Z,101082.23
2023-04-02T17:18:59.724Z,101089.21
2023-04-02T17:21:34.174Z,101092.02
2023-04-02T17:24:33.941Z,101093.45
2023-04-02T17:27:15.777Z,101099.88
2023-04-02T17:29:53.511Z,101104.27
2023-04-02T17:32:33.671Z,101104.68
2023-04-02T17:35:39.787Z,101108.19
2023-04-02T17:38:20.764Z,101118.48
2023-04-02T17:41:32.145Z,101124.25
2023-04-02T17:44:49.239Z,101131.48
2023-04-02T17:48:01.894Z,101142.84
2023-04-02T17:50:38.130Z,101150.75
2023-04-02T17:53:35.788Z,101152.86
2023-04-02T17:56:24.509Z,101161.58
2023-04-02T17:59:08.574Z,101164.02
2023-04-02T18:01:53.853Z,101173.08
2023-04-02T18:04:52.422Z,101173.79
2023-04-02T18:07:36.103Z,101179.30
2023-04-02T18:10:12.090Z,101184.42
2023-04-02T18:13:09.695Z,101189.74
2023-04-02T18:15:58.545Z,101191.67
2023-04-02T18:18:52.475Z,101199.05
2023-04-02T18:21:35.704Z,101200.91
2023-04-02T18:25:06.862Z,101205.52
2023-04-02T18:27:51.876Z,101209.92
2023-04-02T18:30:38.158Z,101214.66
2023-04-02T18:33:37.615Z,101219.94
2023-04-02T18:36:17.167Z,101224.02
2023-04-02T18:39:06.349Z,101226.73
2023-04-02T18:41:52.044Z,101230.83
2023-04-02T18:44:53.994Z,101236.61
2023-04-02T18:47:46.669Z,101239.98
2023-04-02T18:50:29.423Z,101245.79
2023-04-02T18:53:27.946Z,101248.70
2023-04-02T18:56:12.190Z,101253.55
2023-04-02T18:59:06.780Z,101258.30
2023-04-02T19:02:04.530Z,101266.59
2023-04-02T19:04:46.538Z,101272.99
2023-04-02T19:07:31.700Z,101276.61
2023-04-02T19:10:26.007Z,101279.06
2023-04-02T19:13:00.723Z,101281.79
2023-04-02T19:15:56.699Z,101287.42
2023-04-02T19:19:06.883Z,101290.20
2023-04-02T19:22:13.044Z,101294.48
2023-04-02T19:25:21.679Z,101299.00
2023-04-02T19:28:40.284Z,101299.00
2023-04-02T19:31:38.533Z,101302.18
2023-04-02T19:34:20.782Z,101306.36
2023-04-02T19:37:03.398Z,101307.77
2023-04-02T19:40:15.213Z,101309.50
2023-04-02T19:43:01.121Z,101316.96
2023-04-02T19:45:50.610Z,101319.39
2023-04-02T19:48:50.384Z,101319.86
2023-04-02T19:51:27.411Z,101322.31
2023-04-02T19:54:06.926Z,101325.39
2023-04-02T19:56:44.468Z,101330.61
2023-04-02T19:59:24.474Z,101333.29
2023-04-02T20:02:00.008Z,101335.58
2023-04-02T20:04:34.830Z,101339.25
2023-04-02T20:07:09.064Z,101346.65
2023-04-02T20:09:45.290Z,101349.13
2023-04-02T20:12:26.246Z,101356.80
2023-04-02T20:14:58.679Z,101359.92
2023-04-02T20:17:33.326Z,101363.42
2023-04-02T20:20:11.744Z,101368.05
2023-04-02T20:22:49.199Z,101373.02
2023-04-02T20:25:24.376Z,101374.40
2023-04-02T20:27:56.624Z,101374.91
2023-04-02T20:30:36.601Z,101379.41
2023-04-02T20:33:08.501Z,101380.15
2023-04-02T20:35:42.878Z,101380.73
2023-04-02T20:38:19.969Z,101384.05
2023-04-02T20:40:58.526Z,101386.90
2023-04-02T20:43:32.957Z,101388.48
2023-04-02T20:46:10.843Z,101389.81
2023-04-02T20:48:46.312Z,101397.17
2023-04-02T20:51:47.925Z,101408.45
2023-04-02T20:54:24.909Z,101412.16
2023-04-02T20:56:55.817Z,101414.31
2023-04-02T20:59:26.237Z,101420.02
2023-04-02T21:01:56.530Z,101424.29
2023-04-02T21:04:27.279Z,101425.61
2023-04-02T21:06:57.962Z,101430.77
2023-04-02T21:09:28.727Z,101429.80
2023-04-02T21:11:59.560Z,101435.00
2023-04-02T21:14:31.746Z,101437.23
2023-04-02T21:17:02.122Z,101441.18
2023-04-02T21:19:33.318Z,101443.77
2023-04-02T21:22:05.734Z,101446.00
2023-04-02T21:24:43.380Z,101450.06
2023-04-02T21:27:16.635Z,101449.63
2023-04-02T21:29:47.090Z,101454.10
2023-04-02T21:32:21.660Z,101452.96
2023-04-02T21:34:52.921Z,101451.73
2023-04-02T21:37:26.042Z,101451.89
2023-04-02T21:39:56.617Z,101455.67
2023-04-02T21:42:29.423Z,101456.10
2023-04-02T21:45:05.823Z,101462.39
2023-04-02T21:47:36.845Z,101463.73
2023-04-02T21:50:09.499Z,101468.95
2023-04-02T21:52:40.092Z,101468.91
2023-04-02T21:55:10.870Z,101472.57
2023-04-02T21:57:45.051Z,101474.59
2023-04-02T22:00:21.829Z,101475.14
2023-04-02T22:02:52.272Z,101478.33
2023-04-02T22:05:23.009Z,101478.25
2023-04-02T22:07:53.712Z,101476.27
2023-04-02T22:10:24.102Z,101480.27
2023-04-02T22:12:54.854Z,101479.57
2023-04-02T22:15:26.063Z,101486.30
2023-04-02T22:17:56.755Z,101486.75
2023-04-02T22:20:29.580Z,101489.92
2023-04-02T22:23:01.685Z,101490.88
2023-04-02T22:25:35.553Z,101490.09
2023-04-02T22:28:08.312Z,101494.30
2023-04-02T22:30:39.243Z,101494.58
2023-04-02T22:33:11.961Z,101499.08
2023-04-02T22:35:42.588Z,101500.69
2023-04-02T22:38:13.223Z,101504.23
2023-04-02T22:40:43.845Z,101504.83
2023-04-02T22:43:14.304Z,101507.25
2023-04-02T22:45:52.580Z,101508.30
2023-04-02T22:48:23.194Z,101503.77
2023-04-02T22:50:56.010Z,101506.40
2023-04-02T22:53:29.340Z,101511.73
2023-04-02T22:56:14.818Z,101510.95
2023-04-02T22:58:49.070Z,101514.42
2023-04-02T23:01:29.023Z,101515.10
2023-04-02T23:04:01.856Z,101515.84
2023-04-02T23:06:35.971Z,101513.33
2023-04-02T23:09:08.850Z,101519.31
2023-04-02T23:11:44.345Z,101519.47
2023-04-02T23:14:16.294Z,101521.55
2023-04-02T23:16:50.474Z,101519.42
2023-04-02T23:19:27.129Z,101522.02
2023-04-02T23:21:58.149Z,101522.25
2023-04-02T23:24:38.180Z,101523.19
2023-04-02T23:27:10.357Z,101522.60
2023-04-02T23:29:44.570Z,101523.66
2023-04-02T23:32:15.140Z,101521.38
2023-04-02T23:34:45.718Z,101525.41
2023-04-02T23:37:16.665Z,101527.70
2023-04-02T23:39:49.817Z,101529.18
2023-04-02T23:42:20.349Z,101527.46
2023-04-02T23:44:50.896Z,101528.35
2023-04-02T23:47:23.360Z,101532.34
2023-04-02T23:49:56.577Z,101536.39
2023-04-02T23:52:27.117Z,101534.59
2023-04-02T23:54:57.435Z,101533.80
2023-04-02T23:57:27.720Z,101536.76
